Time;durP1;ratioP1;P1;durP2;ratioP2;P2;SDS_P1;SDS_P2;PMS_P1;PMS_P2;Temp;Humidity;BMP_temperature;BMP_pressure;BME280_temperature;BME280_humidity;BME280_pressure;Samples;Min_cycle;Max_cycle;Signal;HPM_P1;HPM_P2
2021/06/27 00:01:57;;;;;;;14.63;9.68;;;;;;;10.65;69.87;99821.46;1723820;80;21456;-66
2021/06/27 00:04:23;;;;;;;20.40;11.33;;;;;;;10.63;69.89;99821.98;1723871;80;20953;-67
2021/06/27 00:06:50;;;;;;;23.77;13.43;;;;;;;10.58;69.88;99814.35;1726697;80;21711;-66
2021/06/27 00:09:17;;;;;;;29.72;17.00;;;;;;;10.53;69.79;99817.19;1721996;80;20898;-66
2021/06/27 00:11:44;;;;;;;28.40;16.87;;;;;;;10.46;69.76;99820.98;1718576;80;21792;-66
2021/06/27 00:14:10;;;;;;;40.63;18.73;;;;;;;10.37;69.76;99824.02;1722329;80;20973;-66
2021/06/27 00:16:38;;;;;;;35.60;21.40;;;;;;;10.30;69.88;99825.19;1730994;80;20973;-67
2021/06/27 00:19:06;;;;;;;31.48;16.42;;;;;;;10.26;70.06;99820.54;1730052;80;21274;-66
2021/06/27 00:21:32;;;;;;;26.25;15.38;;;;;;;10.20;70.04;99821.28;1734849;80;20930;-66
2021/06/27 00:24:00;;;;;;;27.98;14.98;;;;;;;10.17;70.14;99820.11;1715160;80;21442;-66
2021/06/27 00:26:28;;;;;;;37.67;18.40;;;;;;;10.13;70.22;99823.75;1725679;80;21468;-66
2021/06/27 00:28:57;;;;;;;29.70;16.30;;;;;;;10.11;70.23;99821.23;1719083;80;20987;-66
2021/06/27 00:31:24;;;;;;;33.05;17.12;;;;;;;10.08;70.24;99823.52;1730076;80;21074;-66
2021/06/27 00:33:51;;;;;;;25.77;16.62;;;;;;;10.06;70.44;99818.81;1728923;80;20893;-66
2021/06/27 00:36:17;;;;;;;15.95;11.38;;;;;;;10.04;70.60;99821.94;1730862;80;21048;-66
2021/06/27 00:38:44;;;;;;;18.17;12.28;;;;;;;10.03;70.70;99830.69;1728842;80;21532;-66
2021/06/27 00:41:11;;;;;;;22.85;14.98;;;;;;;9.97;70.76;99828.34;1719190;80;21038;-66
2021/06/27 00:43:38;;;;;;;23.77;13.10;;;;;;;9.91;70.74;99823.37;1682731;82;21109;-66
2021/06/27 00:46:05;;;;;;;21.20;12.63;;;;;;;9.83;70.76;99829.36;1728695;80;20969;-66
2021/06/27 00:48:31;;;;;;;22.60;11.45;;;;;;;9.78;70.88;99830.05;1729725;80;20906;-66
2021/06/27 00:50:59;;;;;;;27.52;14.05;;;;;;;9.76;70.97;99821.43;1719616;80;20953;-66
2021/06/27 00:53:26;;;;;;;36.10;18.25;;;;;;;9.76;71.00;99822.73;1719733;80;21012;-66
2021/06/27 00:55:56;;;;;;;33.98;18.27;;;;;;;9.78;71.06;99822.22;1723920;80;21223;-67
2021/06/27 00:58:32;;;;;;;26.68;13.95;;;;;;;9.80;71.19;99825.59;1730163;80;20877;-66
2021/06/27 01:01:00;;;;;;;24.27;14.07;;;;;;;9.82;71.30;99825.08;1716237;80;20906;-66
2021/06/27 01:03:28;;;;;;;20.70;11.18;;;;;;;9.86;71.41;99830.57;1722727;80;20922;-66
2021/06/27 01:05:54;;;;;;;23.92;12.50;;;;;;;9.89;71.44;99829.12;1723884;80;20973;-66
2021/06/27 01:08:21;;;;;;;18.35;11.20;;;;;;;9.90;71.52;99832.12;1727509;80;22398;-67
2021/06/27 01:10:48;;;;;;;16.83;9.83;;;;;;;9.90;71.57;99829.51;1730169;80;21504;-66
2021/06/27 01:13:17;;;;;;;17.12;9.68;;;;;;;9.91;71.64;99827.74;1721451;80;20917;-66
2021/06/27 01:15:44;;;;;;;13.78;9.68;;;;;;;9.91;71.73;99833.80;1711674;80;20927;-67
2021/06/27 01:18:11;;;;;;;19.35;11.25;;;;;;;9.86;71.69;99828.80;1717490;80;26706;-66
2021/06/27 01:20:39;;;;;;;21.37;12.33;;;;;;;9.78;71.66;99835.26;1725884;80;21508;-67
2021/06/27 01:23:13;;;;;;;19.77;10.15;;;;;;;9.68;71.56;99831.33;1729900;80;20851;-66
2021/06/27 01:25:44;;;;;;;24.70;14.13;;;;;;;9.60;71.69;99829.88;1720637;80;21429;-67
2021/06/27 01:28:12;;;;;;;21.77;12.53;;;;;;;9.56;71.67;99830.93;1724050;80;20897;-66
2021/06/27 01:30:40;;;;;;;22.07;13.75;;;;;;;9.51;71.75;99827.66;1724830;80;21128;-66
2021/06/27 01:33:12;;;;;;;17.62;10.90;;;;;;;9.49;71.99;99832.08;1725945;80;21926;-66
2021/06/27 01:35:39;;;;;;;18.87;11.93;;;;;;;9.51;72.09;99827.66;1725961;80;20921;-67
2021/06/27 01:38:06;;;;;;;15.32;8.70;;;;;;;9.55;72.29;99834.46;1728801;80;20874;-67
2021/06/27 01:40:35;;;;;;;14.23;8.55;;;;;;;9.60;72.39;99831.18;1670915;83;21510;-66
2021/06/27 01:43:20;;;;;;;18.45;10.63;;;;;;;9.66;72.47;99827.93;1651949;84;21514;-66
2021/06/27 01:45:51;;;;;;;10.45;8.43;;;;;;;9.69;72.55;99826.06;1705491;82;21926;-66
2021/06/27 01:48:18;;;;;;;15.48;10.50;;;;;;;9.75;72.79;99819.75;1698308;82;21463;-66
2021/06/27 01:50:49;;;;;;;13.15;9.43;;;;;;;9.83;72.82;99820.23;1706087;82;20880;-66
2021/06/27 01:53:19;;;;;;;15.90;8.88;;;;;;;9.86;72.83;99817.06;1730176;80;20968;-66
2021/06/27 01:55:46;;;;;;;16.80;9.55;;;;;;;9.93;72.94;99820.25;1722471;80;21425;-67
2021/06/27 01:58:14;;;;;;;12.65;9.15;;;;;;;9.96;73.02;99818.81;1718569;80;21938;-66
2021/06/27 02:00:41;;;;;;;13.28;8.08;;;;;;;9.97;72.92;99817.91;1728048;80;26768;-66
2021/06/27 02:03:17;;;;;;;12.85;7.95;;;;;;;9.92;72.87;99816.42;1726772;80;20940;-67
2021/06/27 02:05:44;;;;;;;15.35;9.70;;;;;;;9.89;73.02;99813.91;1730056;80;21497;-66
2021/06/27 02:08:11;;;;;;;19.55;11.00;;;;;;;9.89;73.10;99809.57;1733079;80;20965;-66
2021/06/27 02:10:38;;;;;;;19.98;12.15;;;;;;;9.89;73.11;99812.61;1726283;80;21076;-66
2021/06/27 02:13:04;;;;;;;21.33;12.70;;;;;;;9.91;73.15;99822.06;1719815;80;20943;-67
2021/06/27 02:15:31;;;;;;;19.67;11.73;;;;;;;9.91;73.10;99820.77;1720642;80;20958;-67
2021/06/27 02:18:27;;;;;;;15.60;10.75;;;;;;;9.95;73.27;99819.73;1716211;80;20958;-67
2021/06/27 02:20:57;;;;;;;20.15;12.43;;;;;;;10.01;73.35;99814.25;1730965;80;20881;-66
2021/06/27 02:23:24;;;;;;;25.55;15.03;;;;;;;10.05;73.35;99818.43;1729918;80;21130;-67
2021/06/27 02:25:51;;;;;;;20.77;14.38;;;;;;;10.06;73.27;99822.72;1729340;80;20970;-66
2021/06/27 02:28:18;;;;;;;21.48;12.88;;;;;;;10.05;73.26;99820.17;1720464;80;20918;-66
2021/06/27 02:30:45;;;;;;;14.70;10.18;;;;;;;10.10;73.51;99810.38;1722821;80;20957;-66
2021/06/27 02:33:11;;;;;;;15.30;11.20;;;;;;;10.21;73.65;99806.84;1719493;80;20926;-66
2021/06/27 02:35:38;;;;;;;18.40;9.70;;;;;;;10.35;73.82;99812.78;1724306;80;22097;-67
2021/06/27 02:38:06;;;;;;;12.30;9.03;;;;;;;10.48;73.88;99804.80;1728139;80;20893;-67
2021/06/27 02:40:32;;;;;;;14.93;9.30;;;;;;;10.59;73.85;99796.95;1725781;80;20883;-66
2021/06/27 02:42:59;;;;;;;50.67;11.22;;;;;;;10.65;73.85;99800.58;1724951;80;20915;-67
2021/06/27 02:45:26;;;;;;;33.37;9.80;;;;;;;10.72;73.87;99794.97;1719454;80;21019;-67
2021/06/27 02:47:52;;;;;;;22.82;10.13;;;;;;;10.84;73.89;99799.23;1704094;80;21082;-66
2021/06/27 02:50:19;;;;;;;14.93;8.60;;;;;;;10.95;73.93;99792.61;1725039;80;20915;-66
2021/06/27 02:52:46;;;;;;;14.53;9.13;;;;;;;11.07;73.99;99787.25;1723043;80;20877;-67
2021/06/27 02:55:13;;;;;;;11.88;7.95;;;;;;;11.19;73.99;99789.72;1712962;80;21535;-66
2021/06/27 02:57:41;;;;;;;10.20;7.60;;;;;;;11.27;73.98;99788.89;1727339;80;21028;-66
2021/06/27 03:00:15;;;;;;;9.30;6.58;;;;;;;11.36;74.13;99794.95;1726518;80;21987;-66
2021/06/27 03:02:43;;;;;;;8.20;6.30;;;;;;;11.45;74.25;99796.73;1731397;80;20972;-66
2021/06/27 03:05:11;;;;;;;7.75;6.62;;;;;;;11.53;74.38;99793.28;1722271;80;20968;-66
2021/06/27 03:07:38;;;;;;;8.30;7.22;;;;;;;11.64;74.49;99797.52;1725158;80;20907;-66
2021/06/27 03:10:08;;;;;;;11.30;7.53;;;;;;;11.71;74.25;99794.98;1715257;80;20925;-66
2021/06/27 03:12:35;;;;;;;10.68;7.58;;;;;;;11.81;74.42;99796.19;1725279;80;21164;-66
2021/06/27 03:15:01;;;;;;;10.93;6.60;;;;;;;11.94;74.51;99792.99;1724007;80;21563;-66
2021/06/27 03:17:28;;;;;;;7.30;6.35;;;;;;;12.07;74.55;99796.64;1719762;80;21166;-66
2021/06/27 03:19:55;;;;;;;8.88;5.85;;;;;;;12.16;74.48;99794.87;1720485;80;20876;-67
2021/06/27 03:22:21;;;;;;;10.58;7.00;;;;;;;12.22;74.49;99797.16;1726571;80;21557;-66
2021/06/27 03:24:48;;;;;;;10.40;6.93;;;;;;;12.28;74.50;99798.14;1668266;83;21096;-67
2021/06/27 03:27:15;;;;;;;7.20;6.33;;;;;;;12.33;74.50;99795.76;1685732;83;20920;-66
2021/06/27 03:29:41;;;;;;;7.80;6.87;;;;;;;12.37;74.61;99790.72;1728153;80;21112;-67
2021/06/27 03:32:08;;;;;;;10.80;6.67;;;;;;;12.43;74.67;99799.55;1724197;79;20933;-66
2021/06/27 03:34:35;;;;;;;10.30;6.37;;;;;;;12.51;74.76;99796.06;1723392;80;20981;-66
2021/06/27 03:37:02;;;;;;;7.40;6.17;;;;;;;12.60;74.85;99781.14;1721408;80;21107;-66
2021/06/27 03:39:28;;;;;;;8.28;6.78;;;;;;;12.67;74.89;99783.83;1717327;80;22249;-67
2021/06/27 03:41:55;;;;;;;10.73;6.60;;;;;;;12.79;74.99;99784.08;1718092;80;20984;-66
2021/06/27 03:44:23;;;;;;;9.63;7.00;;;;;;;12.92;75.07;99783.31;1682876;83;20967;-67
2021/06/27 03:46:50;;;;;;;7.45;6.20;;;;;;;13.06;75.09;99785.16;1704709;82;20987;-66
2021/06/27 03:49:17;;;;;;;7.97;6.35;;;;;;;13.23;75.11;99778.12;1702700;82;21959;-67
2021/06/27 03:51:43;;;;;;;7.37;6.53;;;;;;;13.37;75.11;99784.75;1635932;84;20965;-67
2021/06/27 03:54:11;;;;;;;10.05;7.40;;;;;;;13.45;75.02;99781.22;1706563;82;20930;-67
2021/06/27 03:56:37;;;;;;;;;;;;;;;13.55;75.04;99777.11;1711878;82;20907;-67
2021/06/27 03:59:05;;;;;;;7.42;5.72;;;;;;;13.65;75.09;99772.18;1729965;80;20456;-66
2021/06/27 04:01:31;;;;;;;8.28;6.08;;;;;;;13.73;75.04;99766.48;1723940;80;21680;-67
2021/06/27 04:04:00;;;;;;;7.45;5.92;;;;;;;13.84;75.09;99771.94;1725977;80;21452;-67
2021/06/27 04:06:26;;;;;;;11.48;6.53;;;;;;;13.96;75.09;99771.19;1715820;80;20867;-66
2021/06/27 04:08:53;;;;;;;10.25;6.80;;;;;;;14.08;75.06;99769.12;1722221;80;21024;-67
2021/06/27 04:11:20;;;;;;;7.83;6.00;;;;;;;14.20;75.07;99767.99;1721189;80;20966;-67
2021/06/27 04:13:46;;;;;;;9.53;6.27;;;;;;;14.34;75.07;99764.07;1731930;80;21932;-67
2021/06/27 04:16:14;;;;;;;10.03;5.47;;;;;;;14.45;75.02;99760.30;1724117;80;20902;-67
2021/06/27 04:18:41;;;;;;;7.22;5.67;;;;;;;14.62;75.13;99755.78;1721022;80;21013;-67
2021/06/27 04:21:07;;;;;;;5.65;5.12;;;;;;;14.74;75.06;99755.02;1732962;80;20934;-67
2021/06/27 04:23:38;;;;;;;6.33;5.73;;;;;;;14.85;74.93;99751.70;1736430;80;20956;-67
2021/06/27 04:26:04;;;;;;;6.00;4.62;;;;;;;14.91;74.90;99753.45;1724584;80;21187;-67
2021/06/27 04:28:31;;;;;;;5.87;4.37;;;;;;;15.08;74.99;99752.83;1710111;80;21440;-67
2021/06/27 04:30:58;;;;;;;6.33;4.47;;;;;;;15.23;74.93;99747.87;1732414;80;21338;-66
2021/06/27 04:33:25;;;;;;;5.28;4.67;;;;;;;15.37;74.94;99749.10;1717616;80;21452;-67
2021/06/27 04:35:51;;;;;;;6.47;4.30;;;;;;;15.52;74.87;99739.84;1722010;80;21072;-67
2021/06/27 04:38:18;;;;;;;6.07;4.33;;;;;;;15.63;74.78;99742.59;1720711;80;21912;-66
2021/06/27 04:40:46;;;;;;;7.83;4.25;;;;;;;15.75;74.69;99742.25;1723351;80;21008;-67
2021/06/27 04:43:13;;;;;;;5.45;4.53;;;;;;;15.85;74.70;99740.20;1730616;80;20956;-66
2021/06/27 04:45:42;;;;;;;5.20;4.30;;;;;;;15.98;74.54;99741.50;1728057;80;20919;-67
2021/06/27 04:48:09;;;;;;;5.47;3.92;;;;;;;16.07;74.53;99740.02;1720634;80;21866;-67
2021/06/27 04:50:37;;;;;;;5.85;3.77;;;;;;;16.17;74.33;99739.75;1725521;80;26724;-67
2021/06/27 04:53:07;;;;;;;5.28;3.92;;;;;;;16.30;74.49;99739.26;1736990;80;20893;-67
2021/06/27 04:55:33;;;;;;;8.25;3.87;;;;;;;16.41;74.33;99741.14;1727656;80;20949;-66
2021/06/27 04:58:00;;;;;;;22.98;4.78;;;;;;;16.46;74.29;99733.72;1719879;80;21052;-67
2021/06/27 05:00:27;;;;;;;8.28;4.65;;;;;;;16.56;74.22;99736.56;1733160;80;21539;-66
2021/06/27 05:02:54;;;;;;;13.62;4.75;;;;;;;16.56;73.94;99739.19;1728912;80;22108;-67
2021/06/27 05:05:20;;;;;;;34.43;5.92;;;;;;;16.63;73.99;99739.09;1681001;83;20918;-67
2021/06/27 05:07:47;;;;;;;22.10;5.45;;;;;;;16.68;73.98;99740.93;1697604;82;20919;-67
2021/06/27 05:10:14;;;;;;;10.82;3.92;;;;;;;16.75;74.21;99739.55;1712399;82;21894;-67
2021/06/27 05:12:41;;;;;;;4.92;3.92;;;;;;;16.85;74.01;99725.72;1652518;84;20941;-67
2021/06/27 05:15:09;;;;;;;6.10;4.60;;;;;;;16.99;73.98;99726.37;1683138;83;21449;-67
2021/06/27 05:17:36;;;;;;;5.85;3.80;;;;;;;17.07;73.73;99733.73;1704476;82;20904;-67
2021/06/27 05:20:04;;;;;;;4.30;3.52;;;;;;;17.37;73.75;99727.97;1703334;82;20958;-67
2021/06/27 05:22:31;;;;;;;5.03;4.00;;;;;;;17.37;73.75;99727.97;1657466;84;20941;-67
2021/06/27 05:24:57;;;;;;;7.30;4.37;;;;;;;17.57;73.72;99731.73;1678528;82;21042;-67
2021/06/27 05:27:24;;;;;;;13.70;5.60;;;;;;;17.71;73.50;99721.92;1663357;84;21246;-67
2021/06/27 05:29:51;;;;;;;10.68;4.30;;;;;;;17.84;73.33;99722.67;1679815;82;20924;-67
2021/06/27 05:32:17;;;;;;;8.33;4.20;;;;;;;17.92;73.15;99720.27;1659847;84;21540;-67
2021/06/27 05:34:44;;;;;;;12.03;4.33;;;;;;;18.08;73.14;99722.57;1666331;83;20915;-67
2021/06/27 05:37:11;;;;;;;24.47;5.62;;;;;;;18.29;73.18;99722.70;1669592;82;20944;-67
2021/06/27 05:39:37;;;;;;;13.88;4.65;;;;;;;18.44;72.85;99726.75;1690497;82;21116;-67
2021/06/27 05:42:06;;;;;;;29.15;5.72;;;;;;;18.63;72.82;99733.22;1645354;84;21582;-67
2021/06/27 05:44:32;;;;;;;38.17;7.25;;;;;;;18.79;72.68;99732.34;1672803;83;20885;-67
2021/06/27 05:46:59;;;;;;;14.58;5.25;;;;;;;18.94;72.49;99723.66;1699792;82;20954;-67
2021/06/27 05:49:25;;;;;;;92.80;10.70;;;;;;;19.05;72.30;99722.78;1682008;83;21090;-67
2021/06/27 05:51:52;;;;;;;46.55;7.87;;;;;;;19.09;72.02;99718.89;1704348;82;21112;-67
2021/06/27 05:54:19;;;;;;;84.75;15.70;;;;;;;19.24;72.18;99717.64;1641718;84;20927;-66
2021/06/27 05:56:46;;;;;;;101.27;15.78;;;;;;;19.36;72.09;99719.25;1646067;85;20935;-66
2021/06/27 05:59:12;;;;;;;69.95;13.15;;;;;;;19.50;71.95;99724.70;1701361;82;21083;-67
2021/06/27 06:01:39;;;;;;;44.23;7.58;;;;;;;19.57;71.81;99719.72;1677124;83;21061;-67
2021/06/27 06:04:06;;;;;;;9.85;5.58;;;;;;;19.55;71.17;99726.95;1674114;83;21126;-67
2021/06/27 06:06:32;;;;;;;96.05;13.22;;;;;;;19.45;71.24;99728.22;1666802;83;20926;-66
2021/06/27 06:09:04;;;;;;;80.95;13.53;;;;;;;19.33;70.72;99724.80;1671954;83;20936;-67
2021/06/27 06:11:31;;;;;;;63.58;14.38;;;;;;;19.36;71.13;99724.55;1658646;83;21495;-67
2021/06/27 06:13:58;;;;;;;49.45;9.90;;;;;;;19.38;70.90;99725.27;1679747;83;20941;-67
2021/06/27 06:16:24;;;;;;;29.63;6.97;;;;;;;19.37;70.87;99723.56;1705452;82;20943;-66
2021/06/27 06:18:51;;;;;;;8.25;4.65;;;;;;;19.54;70.96;99723.95;1708871;82;20977;-65
2021/06/27 06:21:18;;;;;;;37.63;7.37;;;;;;;19.51;69.65;99726.86;1648500;84;20950;-65
2021/06/27 06:23:45;;;;;;;17.67;5.95;;;;;;;19.40;70.73;99727.28;1723424;80;20981;-66
2021/06/27 06:26:12;;;;;;;123.13;21.55;;;;;;;19.63;70.47;99726.69;1721781;80;21555;-66
2021/06/27 06:28:39;;;;;;;90.85;16.52;;;;;;;19.75;70.53;99720.02;1723525;80;21260;-66
2021/06/27 06:31:07;;;;;;;;;;;;;;;19.81;70.18;99729.59;1734680;80;20993;-66
2021/06/27 06:33:33;;;;;;;19.37;6.50;;;;;;;19.97;70.21;99731.77;1727402;80;20642;-66
2021/06/27 06:36:00;;;;;;;7.85;5.37;;;;;;;20.13;70.10;99733.91;1678172;82;20885;-65
2021/06/27 06:38:26;;;;;;;19.85;4.87;;;;;;;20.28;69.79;99735.24;1707095;82;20871;-66
2021/06/27 06:40:54;;;;;;;6.85;4.30;;;;;;;20.24;69.33;99739.12;1640570;84;21217;-65
2021/06/27 06:43:20;;;;;;;;;;;;;;;19.89;68.69;99750.14;1722404;80;20918;-66
2021/06/27 06:45:47;;;;;;;9.80;5.00;;;;;;;19.80;69.36;99751.77;1722694;80;20098;-65
2021/06/27 06:48:13;;;;;;;6.28;4.10;;;;;;;19.75;69.02;99753.97;1722604;80;20980;-65
2021/06/27 06:50:40;;;;;;;8.80;4.85;;;;;;;19.66;69.12;99744.99;1673905;82;21510;-66
2021/06/27 06:53:07;;;;;;;5.17;4.25;;;;;;;19.66;69.12;99744.99;1730824;80;21114;-66
2021/06/27 06:55:33;;;;;;;31.55;5.70;;;;;;;19.81;69.27;99749.95;1728140;80;21101;-66
2021/06/27 06:58:00;;;;;;;33.63;6.92;;;;;;;19.84;69.16;99744.39;1715126;80;21113;-65
2021/06/27 07:00:27;;;;;;;58.58;12.23;;;;;;;19.96;69.37;99742.49;1722794;80;20959;-66
2021/06/27 07:02:54;;;;;;;9.20;4.87;;;;;;;20.16;68.35;99746.90;1720349;80;21048;-65
2021/06/27 07:05:21;;;;;;;17.37;5.60;;;;;;;20.16;68.35;99746.90;1727337;80;21116;-66
2021/06/27 07:07:48;;;;;;;16.30;5.53;;;;;;;20.22;68.24;99746.39;1731767;80;20976;-64
2021/06/27 07:10:15;;;;;;;34.33;7.42;;;;;;;20.27;68.47;99746.80;1730373;80;20941;-66
2021/06/27 07:12:43;;;;;;;42.65;8.45;;;;;;;20.37;68.43;99748.67;1715698;80;20957;-67
2021/06/27 07:15:11;;;;;;;203.37;25.30;;;;;;;20.44;68.26;99744.00;1716555;80;20967;-66
2021/06/27 07:17:39;;;;;;;115.50;20.60;;;;;;;20.70;68.71;99740.41;1728995;80;21931;-68
2021/06/27 07:20:08;;;;;;;122.17;16.20;;;;;;;21.08;68.77;99738.76;1731956;80;20898;-64
2021/06/27 07:22:35;;;;;;;109.00;15.15;;;;;;;21.23;68.09;99744.52;1719676;80;21532;-65
2021/06/27 07:25:02;;;;;;;150.97;20.30;;;;;;;21.50;68.37;99741.14;1720683;80;20996;-65
2021/06/27 07:27:29;;;;;;;32.53;7.17;;;;;;;21.87;68.13;99745.67;1706225;80;20937;-65
2021/06/27 07:29:56;;;;;;;21.82;6.60;;;;;;;22.18;67.89;99744.13;1719320;80;20994;-65
2021/06/27 07:32:26;;;;;;;85.65;15.28;;;;;;;22.45;67.01;99744.14;1721754;80;20935;-66
2021/06/27 07:34:53;;;;;;;29.67;6.58;;;;;;;22.55;67.24;99745.44;1721117;80;21430;-66
2021/06/27 07:37:19;;;;;;;7.33;3.42;;;;;;;22.78;66.71;99753.83;1732489;80;20940;-66
2021/06/27 07:39:46;;;;;;;11.28;3.62;;;;;;;22.85;65.66;99752.73;1725116;80;20903;-66
2021/06/27 07:42:14;;;;;;;3.42;2.65;;;;;;;22.83;65.55;99748.91;1725814;80;22036;-66
2021/06/27 07:44:40;;;;;;;4.65;2.98;;;;;;;22.22;64.30;99706.97;1724257;80;21470;-65
2021/06/27 07:47:09;;;;;;;114.28;14.75;;;;;;;22.10;63.45;99753.66;1724691;80;21048;-65
2021/06/27 07:49:35;;;;;;;25.20;5.90;;;;;;;21.95;65.05;99758.25;1728141;80;21712;-66
2021/06/27 07:52:03;;;;;;;9.23;3.80;;;;;;;22.52;64.77;99749.23;1714146;80;20930;-66
2021/06/27 07:54:30;;;;;;;57.08;8.75;;;;;;;22.72;64.48;99751.78;1732491;80;21105;-65
2021/06/27 07:56:56;;;;;;;;;;;;;;;22.88;64.99;99759.94;1733690;80;20891;-65
2021/06/27 07:59:23;;;;;;;4.97;2.67;;;;;;;23.20;64.51;99757.27;1720309;80;20144;-65
2021/06/27 08:01:50;;;;;;;101.45;16.77;;;;;;;23.19;62.62;99762.23;1727814;80;20921;-65
2021/06/27 08:04:17;;;;;;;72.97;16.23;;;;;;;23.04;63.47;99763.27;1727969;80;20938;-67
2021/06/27 08:06:44;;;;;;;45.80;11.50;;;;;;;23.25;63.74;99751.00;1725333;80;21965;-66
2021/06/27 08:09:10;;;;;;;64.37;11.05;;;;;;;23.48;63.77;99754.51;1728549;80;20907;-66
2021/06/27 08:11:37;;;;;;;4.40;2.42;;;;;;;23.54;62.38;99760.55;1726324;80;20929;-66
2021/06/27 08:14:04;;;;;;;10.00;2.40;;;;;;;23.45;61.31;99768.48;1719374;80;20924;-66
2021/06/27 08:16:31;;;;;;;4.45;2.37;;;;;;;22.49;56.25;99765.49;1713796;80;21101;-66
2021/06/27 08:18:57;;;;;;;;;;;;;;;21.99;60.48;99757.83;1728995;80;21084;-65
2021/06/27 08:21:24;;;;;;;15.58;3.77;;;;;;;22.40;62.59;99761.53;1724967;80;20088;-66
2021/06/27 08:23:50;;;;;;;65.32;5.67;;;;;;;22.80;61.85;99765.17;1674110;83;21571;-64
2021/06/27 08:26:18;;;;;;;15.03;4.67;;;;;;;22.72;60.96;99765.09;1721628;80;20950;-64
2021/06/27 08:28:45;;;;;;;6.10;2.60;;;;;;;22.76;61.32;99763.78;1729779;80;20881;-64
2021/06/27 08:31:11;;;;;;;3.30;2.33;;;;;;;22.47;57.58;99777.27;1724064;80;21155;-65
2021/06/27 08:33:38;;;;;;;2.83;2.35;;;;;;;21.70;59.63;99770.34;1720824;80;21460;-66
2021/06/27 08:36:05;;;;;;;27.77;6.40;;;;;;;21.79;60.90;99766.81;1727714;80;20958;-65
2021/06/27 08:38:32;;;;;;;6.72;2.80;;;;;;;22.16;61.13;99771.34;1726431;80;20953;-65
2021/06/27 08:41:00;;;;;;;3.35;2.40;;;;;;;22.09;60.02;99769.25;1718491;80;20962;-65
2021/06/27 08:43:33;;;;;;;11.75;2.50;;;;;;;21.95;56.46;99769.72;1718159;80;21118;-65
2021/06/27 08:46:07;;;;;;;5.42;2.50;;;;;;;21.79;58.39;99769.47;1725868;80;20996;-65
2021/06/27 08:48:40;;;;;;;3.90;2.25;;;;;;;22.00;59.46;99766.64;1720386;80;20954;-66
2021/06/27 08:51:08;;;;;;;3.90;2.35;;;;;;;22.07;58.38;99773.03;1719362;80;21470;-66
2021/06/27 08:53:39;;;;;;;2.67;1.87;;;;;;;22.09;58.00;99771.08;1720457;80;21036;-65
2021/06/27 08:56:08;;;;;;;6.10;2.70;;;;;;;21.82;56.80;99769.21;1730660;80;21420;-66
2021/06/27 08:58:38;;;;;;;2.62;2.17;;;;;;;21.49;57.88;99766.05;1726108;80;20946;-66
2021/06/27 09:01:09;;;;;;;4.47;2.50;;;;;;;21.45;57.82;99776.58;1731916;80;21337;-65
2021/06/27 09:03:37;;;;;;;7.45;2.70;;;;;;;21.24;58.19;99774.89;1716205;80;20916;-65
2021/06/27 09:06:05;;;;;;;5.58;2.90;;;;;;;21.22;58.76;99767.55;1687072;83;20984;-65
2021/06/27 09:08:31;;;;;;;6.05;2.80;;;;;;;21.48;59.11;99769.66;1706032;82;21138;-64
2021/06/27 09:11:15;;;;;;;4.72;2.25;;;;;;;21.53;58.59;99767.42;1673274;83;20911;-66
2021/06/27 09:13:44;;;;;;;7.35;2.52;;;;;;;21.42;58.59;99771.55;1690531;82;21023;-66
2021/06/27 09:16:23;;;;;;;2.77;2.37;;;;;;;21.17;58.66;99767.15;1698105;80;20933;-65
2021/06/27 09:18:51;;;;;;;7.45;2.55;;;;;;;21.14;58.88;99776.69;1731861;80;20993;-65
2021/06/27 09:21:19;;;;;;;6.17;2.80;;;;;;;21.07;59.37;99768.12;1680535;83;21104;-66
2021/06/27 09:23:48;;;;;;;18.23;3.67;;;;;;;21.19;59.07;99762.52;1718822;80;20994;-66
2021/06/27 09:26:30;;;;;;;11.03;4.05;;;;;;;21.39;59.44;99766.53;1724432;80;20988;-65
2021/06/27 09:28:58;;;;;;;4.75;2.70;;;;;;;21.45;59.26;99768.62;1675843;83;20913;-65
2021/06/27 09:31:43;;;;;;;4.15;2.65;;;;;;;21.33;59.06;99772.37;1662698;84;21022;-66
2021/06/27 09:34:14;;;;;;;3.80;2.02;;;;;;;21.33;58.65;99776.36;1659224;83;21097;-65
2021/06/27 09:36:53;;;;;;;3.37;2.10;;;;;;;21.08;57.96;99777.25;1678300;83;21024;-66
2021/06/27 09:39:19;;;;;;;4.65;2.40;;;;;;;20.89;58.01;99779.38;1658973;83;20991;-65
2021/06/27 09:41:57;;;;;;;2.10;1.90;;;;;;;20.82;57.75;99780.09;1702606;82;21527;-65
2021/06/27 09:44:23;;;;;;;;;;;;;;;20.65;57.14;99779.77;1677214;83;20998;-65
2021/06/27 09:46:53;;;;;;;3.70;2.08;;;;;;;20.68;58.09;99771.54;1679827;82;21697;-65
2021/06/27 09:49:32;;;;;;;5.60;2.10;;;;;;;20.79;57.85;99772.75;1661743;83;20933;-66
2021/06/27 09:52:07;;;;;;;16.12;3.27;;;;;;;20.89;57.51;99775.90;1652019;84;21097;-66
2021/06/27 09:54:37;;;;;;;5.03;2.50;;;;;;;20.88;57.46;99771.58;1683880;83;20930;-65
2021/06/27 09:57:05;;;;;;;7.25;2.62;;;;;;;21.00;56.94;99771.80;1683101;82;20931;-66
2021/06/27 09:59:41;;;;;;;29.98;5.83;;;;;;;21.17;57.54;99775.58;1687523;83;21944;-66
2021/06/27 10:02:09;;;;;;;7.78;2.87;;;;;;;21.48;57.50;99769.66;1670866;82;20954;-65
2021/06/27 10:04:42;;;;;;;14.10;3.45;;;;;;;21.84;57.47;99767.23;1677150;82;21560;-65
2021/06/27 10:07:08;;;;;;;2.35;1.98;;;;;;;22.05;57.52;99769.20;1660980;84;20895;-66
2021/06/27 10:09:38;;;;;;;5.95;2.15;;;;;;;22.33;56.50;99765.28;1657853;83;20923;-66
2021/06/27 10:12:19;;;;;;;6.08;2.47;;;;;;;22.68;57.11;99765.02;1664788;81;21175;-65
2021/06/27 10:15:09;;;;;;;;;;;;;;;;;;;;;
2021/06/27 10:17:28;;;;;;;7.90;2.33;;;;;;;23.39;56.11;99769.09;1637111;85;20979;-66
2021/06/27 10:19:56;;;;;;;3.75;2.02;;;;;;;23.54;52.14;99772.54;1667460;84;20998;-67
2021/06/27 10:22:26;;;;;;;5.65;1.95;;;;;;;23.29;54.28;99765.67;1701902;82;21040;-65
2021/06/27 10:24:54;;;;;;;5.20;2.37;;;;;;;23.15;50.77;99769.70;1697923;82;21133;-64
2021/06/27 10:27:21;;;;;;;4.22;1.80;;;;;;;22.82;53.92;99767.17;1689875;82;20951;-66
2021/06/27 10:29:49;;;;;;;4.90;2.20;;;;;;;22.52;52.39;99773.17;1704980;82;21432;-65
2021/06/27 10:32:19;;;;;;;2.87;2.00;;;;;;;22.33;53.39;99774.09;1706961;82;20938;-65
2021/06/27 10:34:47;;;;;;;22.05;3.02;;;;;;;22.28;53.96;99767.55;1680198;82;20894;-64
2021/06/27 10:37:38;;;;;;;8.55;2.40;;;;;;;22.61;54.25;99761.30;1705890;82;21139;-65
2021/06/27 10:40:14;;;;;;;3.70;2.50;;;;;;;23.06;54.37;99762.63;1673563;83;20976;-65
2021/06/27 10:42:54;;;;;;;5.17;2.27;;;;;;;23.29;53.80;99756.84;1699456;82;20988;-66
2021/06/27 10:45:41;;;;;;;2.47;2.10;;;;;;;23.22;52.98;99764.63;1691578;82;20889;-65
2021/06/27 10:48:33;;;;;;;;;;;;;;;22.73;52.30;99761.42;1659933;84;20933;-64
2021/06/27 10:51:03;;;;;;;3.67;2.20;;;;;;;22.68;53.12;99762.36;1655537;84;21248;-65
2021/06/27 10:54:09;;;;;;;2.92;1.98;;;;;;;22.96;53.10;99760.02;1701101;82;20919;-67
2021/06/27 10:56:56;;;;;;;;;;;;;;;23.44;51.87;99757.48;1686848;83;20897;-66
2021/06/27 10:59:53;;;;;;;2.40;1.70;;;;;;;23.07;49.86;99766.13;1676934;82;20164;-64
2021/06/27 11:02:37;;;;;;;11.97;2.20;;;;;;;22.67;51.27;99762.03;1634036;84;21700;-65
2021/06/27 11:05:32;;;;;;;3.62;1.75;;;;;;;22.98;51.60;99768.70;1624320;85;21243;-64
2021/06/27 11:08:01;;;;;;;7.57;2.40;;;;;;;22.75;50.15;99762.95;1632794;84;21612;-67
2021/06/27 11:10:33;;;;;;;3.00;2.17;;;;;;;22.47;50.69;99761.30;1648372;84;21628;-65
2021/06/27 11:13:08;;;;;;;6.20;2.00;;;;;;;22.45;51.41;99756.11;1627100;85;21589;-66
2021/06/27 11:15:38;;;;;;;14.60;2.70;;;;;;;22.43;50.07;99762.56;1618925;85;21081;-64
2021/06/27 11:18:10;;;;;;;3.67;2.00;;;;;;;22.31;51.41;99757.94;1625621;85;21092;-65
2021/06/27 11:20:55;;;;;;;2.77;2.10;;;;;;;22.46;51.42;99757.81;1627735;85;20934;-65
2021/06/27 11:23:59;;;;;;;11.12;2.60;;;;;;;22.37;51.03;99769.31;1643802;84;20904;-65
2021/06/27 11:26:50;;;;;;;8.55;2.65;;;;;;;22.32;51.35;99760.94;1631803;85;21639;-66
2021/06/27 11:29:30;;;;;;;6.40;2.20;;;;;;;22.04;50.92;99766.22;1673210;83;21627;-65
2021/06/27 11:32:15;;;;;;;4.33;2.30;;;;;;;21.89;51.38;99758.34;1673416;83;21850;-68
2021/06/27 11:34:56;;;;;;;3.17;2.20;;;;;;;21.90;51.75;99758.67;1655390;83;20960;-68
2021/06/27 11:37:28;;;;;;;2.45;2.00;;;;;;;22.04;50.92;99760.89;1682293;82;20895;-65
2021/06/27 11:40:01;;;;;;;2.50;2.02;;;;;;;21.93;51.33;99754.89;1701291;82;21244;-66
2021/06/27 11:42:34;;;;;;;4.50;2.12;;;;;;;21.83;50.86;99761.08;1632882;84;20910;-65